Main page
METAR-TAF:

Airports :

Ciudad Del Este, Paraguay

Guaraní International Airport

latitude: 25-27-20S, longitude: 054-50-37W, elevation: 257 m

Current weather observation

The report was made 47 minutes ago, at 20:00 UTC
Wind 12 kt from the South
Temperature 27°C
Humidity 32%
Pressure 1015 hPa
Visibility 10 km or more
no clouds below 1500 m and no cumulonimbus

METAR: SGES 252000Z 19012KT CAVOK 27/09 Q1015

Time: 16:47 (20:47 UTC)

Forecast

The report was made 4 hours and 1 minutes ago, at 16:46 UTC
Forecast valid from 25 at 18 UTC to 26 at 18 UTC
Wind 10 kt from the South/Southwest
Visibility 10 km or more
no clouds below 1500 m and no cumulonimbus
Becoming
from 26 at 02 UTC to 26 at 05 UTC
Wind 4 kt from variable directions
From 26 at 1200 UTC
Wind 8 kt from the South
Visibility 10 km or more
no clouds below 1500 m and no cumulonimbus

TAF: SGES 251646Z 2518/2618 21010KT CAVOK TX27/2519Z TN10/2610Z BECMG 2602/2605 VRB04KT FM261200 17008KT CAVOK

METAR-TAF

Weather observations and forecasts of more than 4000 airports (METAR and TAF reports).

The available stations are represented by yellow and red dots on the map.

Hover mouse over dot to see the name of the station.

Then click to see weather observations and forecasts.

To change the map : click on the green buttons with a black cross to zoom in, on the green button with a dash to zoom out, or on the green arrows for adjacent maps.


METAR-TAF: